This is the latest recevied weather packets stored in our database for station/object N8QF. If no packets are shown the sender has not sent any weather packets the latest 10 day(s).
| Time | Temp. | Humidity | Pressure | Rain* | Wind** | Luminosity | Snow |
|---|---|---|---|---|---|---|---|
| 1777749003 | 11.67° C | 45% | 1016.4 hPa | 0 mm | - | - | - |
| 1777748703 | 11.11° C | 43% | 1016.5 hPa | 0 mm | - | - | - |
| 1777748403 | 11.11° C | 44% | 1016.5 hPa | 0 mm | - | - | - |
| 1777748103 | 10.56° C | 46% | 1016.5 hPa | 0 mm | - | - | - |
| 1777747803 | 11.11° C | 49% | 1016.6 hPa | 0 mm | - | - | - |
| 1777747502 | 10.56° C | 45% | 1016.6 hPa | 0 mm | - | - | - |
| 1777747202 | 11.11° C | 46% | 1016.8 hPa | 0 mm | - | - | - |
| 1777746902 | 11.67° C | 46% | 1016.8 hPa | 0 mm | - | - | - |
| 1777746605 | 11.67° C | 44% | 1016.6 hPa | 0 mm | - | - | - |
| 1777746301 | 11.67° C | 48% | 1016.6 hPa | 0 mm | - | - | - |
| 1777746001 | 11.11° C | 45% | 1016.6 hPa | 0 mm | - | - | - |
| 1777745701 | 11.11° C | 48% | 1016.8 hPa | 0 mm | - | - | - |
| 1777745440 | 11.11° C | 46% | 1016.8 hPa | 0 mm | - | - | - |
| 1777745401 | 11.11° C | 46% | 1016.8 hPa | 0 mm | - | - | - |
| 1777745100 | 10.56° C | 43% | 1016.9 hPa | 0 mm | - | - | - |
| 1777744800 | 10.56° C | 42% | 1016.9 hPa | 0 mm | - | - | - |
| 1777744500 | 10.56° C | 45% | 1016.9 hPa | 0 mm | - | - | - |
| 1777744200 | 11.11° C | 49% | 1016.8 hPa | 0 mm | - | - | - |
| 1777743900 | 10° C | 43% | 1016.9 hPa | 0 mm | - | - | - |
| 1777743599 | 11.11° C | 50% | 1016.8 hPa | 0 mm | - | - | - |
| 1777743299 | 10° C | 42% | 1016.9 hPa | 0 mm | - | - | - |
| 1777742999 | 10.56° C | 48% | 1017 hPa | 0 mm | - | - | - |
| 1777742699 | 10.56° C | 44% | 1016.9 hPa | 0 mm | - | - | - |
| 1777742398 | 11.11° C | 50% | 1017 hPa | 0 mm | - | - | - |
| 1777742098 | 10.56° C | 44% | 1017 hPa | 0 mm | - | - | - |
* Rain since midnight (hover to see other rain measurements)
** Current wind speed in m/s (hover to see current wind gust speed)